Time;durP1;ratioP1;P1;durP2;ratioP2;P2;SDS_P1;SDS_P2;PMS_P1;PMS_P2;Temp;Humidity;BMP_temperature;BMP_pressure;BME280_temperature;BME280_humidity;BME280_pressure;Samples;Min_cycle;Max_cycle;Signal;HPM_P1;HPM_P2
2023/11/04 00:02:23;;;;;;;3.03;1.85;;;;;;;9.08;100.00;98529.00;5092185;28;20048;-65
2023/11/04 00:05:11;;;;;;;5.25;2.40;;;;;;;9.07;100.00;98527.41;5080688;28;20040;-65
2023/11/04 00:07:59;;;;;;;4.07;1.77;;;;;;;9.06;100.00;98528.50;5095261;28;20059;-65
2023/11/04 00:10:49;;;;;;;5.03;2.30;;;;;;;9.08;100.00;98515.41;5078624;28;20526;-64
2023/11/04 00:13:37;;;;;;;5.63;1.67;;;;;;;9.04;100.00;98520.66;5087093;28;20044;-65
2023/11/04 00:16:25;;;;;;;4.05;2.20;;;;;;;9.02;100.00;98513.94;5065504;28;20173;-66
2023/11/04 00:19:14;;;;;;;2.88;1.63;;;;;;;9.03;100.00;98523.69;5078225;28;20055;-65
2023/11/04 00:22:02;;;;;;;2.60;1.67;;;;;;;9.03;100.00;98519.06;5094750;28;20048;-65
2023/11/04 00:24:53;;;;;;;2.35;1.55;;;;;;;9.06;100.00;98513.00;5079134;28;20059;-65
2023/11/04 00:27:41;;;;;;;2.55;1.70;;;;;;;9.08;100.00;98521.63;5093723;28;20047;-66
2023/11/04 00:30:29;;;;;;;2.70;1.70;;;;;;;9.12;100.00;98519.91;5063402;28;20423;-66
2023/11/04 00:33:37;;;;;;;2.60;1.67;;;;;;;9.13;100.00;98515.25;5067357;28;20044;-65
2023/11/04 00:36:45;;;;;;;3.60;1.83;;;;;;;9.21;100.00;98522.63;5083250;28;20514;-64
2023/11/04 00:39:53;;;;;;;2.55;1.90;;;;;;;9.21;100.00;98519.13;5092338;28;20389;-65
2023/11/04 00:43:02;;;;;;;3.80;2.30;;;;;;;9.21;100.00;98509.03;5093208;28;20048;-64
2023/11/04 00:46:10;;;;;;;3.95;1.77;;;;;;;9.21;100.00;98509.03;5066793;28;20111;-66
2023/11/04 00:49:18;;;;;;;2.83;1.63;;;;;;;9.19;100.00;98511.28;5069751;28;20079;-65
2023/11/04 00:52:26;;;;;;;3.88;1.70;;;;;;;9.19;100.00;98511.28;5069677;28;20075;-65
2023/11/04 00:55:34;;;;;;;3.33;1.33;;;;;;;9.18;100.00;98512.41;5100894;28;20050;-66
2023/11/04 00:58:42;;;;;;;2.40;1.70;;;;;;;9.18;100.00;98520.53;5090784;28;20044;-65
2023/11/04 01:01:50;;;;;;;2.50;1.35;;;;;;;9.17;100.00;98513.53;5087985;28;20044;-65
2023/11/04 01:04:58;;;;;;;3.88;1.73;;;;;;;9.19;100.00;98514.00;5090350;28;20403;-65
2023/11/04 01:08:06;;;;;;;3.60;1.85;;;;;;;9.23;100.00;98520.41;5090558;28;20039;-65
2023/11/04 01:11:14;;;;;;;4.50;2.30;;;;;;;9.27;100.00;98512.44;5101937;28;20047;-66
2023/11/04 01:14:22;;;;;;;1.80;1.33;;;;;;;9.26;100.00;98502.66;5074543;28;20052;-65
2023/11/04 01:17:30;;;;;;;3.45;1.98;;;;;;;9.32;100.00;98515.00;5070624;28;20040;-65
2023/11/04 01:20:38;;;;;;;4.20;1.80;;;;;;;9.34;100.00;98499.97;5091774;28;20093;-64
2023/11/04 01:23:46;;;;;;;6.82;2.25;;;;;;;9.27;100.00;98510.50;5084589;28;20042;-66
2023/11/04 01:26:56;;;;;;;5.03;2.45;;;;;;;9.28;100.00;98493.06;5091346;28;20043;-64
2023/11/04 01:30:04;;;;;;;5.75;2.00;;;;;;;9.28;100.00;98501.22;5102550;28;20043;-64
2023/11/04 01:33:12;;;;;;;4.75;1.90;;;;;;;9.31;100.00;98492.47;5087049;28;20539;-65
2023/11/04 01:36:20;;;;;;;3.45;2.30;;;;;;;9.30;100.00;98487.34;5113121;28;20043;-65
2023/11/04 01:39:28;;;;;;;7.80;2.15;;;;;;;9.34;100.00;98480.16;5100186;28;20062;-66
2023/11/04 01:42:41;;;;;;;2.33;1.70;;;;;;;9.31;100.00;98480.81;5086190;28;20501;-65
2023/11/04 01:45:57;;;;;;;4.53;1.90;;;;;;;9.34;100.00;98474.72;5111350;28;20138;-64
2023/11/04 01:49:05;;;;;;;3.17;1.67;;;;;;;9.31;100.00;98469.94;5112602;28;20126;-64
2023/11/04 01:52:14;;;;;;;4.40;1.73;;;;;;;9.33;100.00;98471.22;5074622;28;20036;-66
2023/11/04 01:55:22;;;;;;;4.32;2.05;;;;;;;9.33;100.00;98471.22;5069005;28;20075;-66
2023/11/04 01:58:32;;;;;;;3.67;1.83;;;;;;;9.34;100.00;98475.50;5070727;28;20040;-65
2023/11/04 02:01:45;;;;;;;1.85;1.38;;;;;;;9.35;100.00;98463.50;5064451;28;20135;-65
2023/11/04 02:04:55;;;;;;;3.92;1.90;;;;;;;9.49;100.00;98466.09;5059336;28;20044;-64
2023/11/04 02:08:03;;;;;;;4.72;2.10;;;;;;;9.44;100.00;98457.31;5080203;28;20500;-64
2023/11/04 02:11:11;;;;;;;3.78;2.10;;;;;;;9.42;100.00;98454.09;5057049;28;20051;-65
2023/11/04 02:14:20;;;;;;;3.28;1.88;;;;;;;9.44;100.00;98451.88;5053945;28;20052;-66
2023/11/04 02:17:28;;;;;;;4.45;2.10;;;;;;;9.44;100.00;98457.31;5050264;28;20492;-65
2023/11/04 02:20:36;;;;;;;2.92;2.00;;;;;;;9.41;100.00;98447.06;5068758;28;20043;-65
2023/11/04 02:23:44;;;;;;;5.97;2.25;;;;;;;9.42;100.00;98443.22;5069300;28;20411;-65
2023/11/04 02:26:52;;;;;;;4.38;1.90;;;;;;;9.39;100.00;98437.31;5078648;28;20048;-65
2023/11/04 02:30:01;;;;;;;3.40;1.95;;;;;;;9.43;100.00;98450.25;5079125;28;20060;-65
2023/11/04 02:33:09;;;;;;;1.95;1.65;;;;;;;9.42;100.00;98449.47;5061226;28;20045;-65
2023/11/04 02:36:17;;;;;;;7.22;2.22;;;;;;;9.44;100.00;98443.72;5071161;28;20052;-65
2023/11/04 02:39:25;;;;;;;4.18;2.05;;;;;;;9.48;100.00;98442.75;5082415;28;20056;-63
2023/11/04 02:42:33;;;;;;;5.90;2.35;;;;;;;9.52;100.00;98445.63;5058259;28;20514;-64
2023/11/04 02:45:41;;;;;;;5.60;1.77;;;;;;;9.48;100.00;98440.03;5071158;28;20044;-64
2023/11/04 02:48:49;;;;;;;5.72;2.30;;;;;;;9.46;100.00;98436.03;5061646;28;20040;-64
2023/11/04 02:51:57;;;;;;;5.85;1.92;;;;;;;9.47;100.00;98438.44;5066156;28;20036;-65
2023/11/04 02:55:17;;;;;;;5.80;2.30;;;;;;;9.48;100.00;98431.09;5055980;28;20193;-64
2023/11/04 02:58:25;;;;;;;5.47;2.22;;;;;;;9.45;100.00;98427.06;5080425;28;20115;-63
2023/11/04 03:01:34;;;;;;;2.45;1.77;;;;;;;9.48;100.00;98425.66;5075175;28;20048;-64
2023/11/04 03:04:42;;;;;;;4.97;2.20;;;;;;;9.45;100.00;98426.28;5057870;28;20048;-64
2023/11/04 03:07:51;;;;;;;3.47;1.77;;;;;;;9.46;100.00;98425.97;5085674;28;20047;-64
2023/11/04 03:10:58;;;;;;;4.75;1.90;;;;;;;9.44;100.00;98422.75;5084674;28;20048;-64
2023/11/04 03:14:06;;;;;;;4.55;1.90;;;;;;;9.47;100.00;98413.16;5064604;28;20055;-65
2023/11/04 03:17:16;;;;;;;5.57;2.00;;;;;;;9.46;100.00;98417.03;5079580;28;20399;-64
2023/11/04 03:20:24;;;;;;;3.53;1.83;;;;;;;9.43;100.00;98423.06;5079002;28;20051;-65
2023/11/04 03:23:31;;;;;;;3.25;1.83;;;;;;;9.42;100.00;98426.91;5090182;28;20048;-66
2023/11/04 03:26:40;;;;;;;3.00;2.13;;;;;;;9.44;100.00;98421.97;5057562;28;20056;-66
2023/11/04 03:29:48;;;;;;;4.95;2.03;;;;;;;9.39;100.00;98418.28;5056394;28;20044;-65
2023/11/04 03:32:56;;;;;;;5.57;1.65;;;;;;;9.39;100.00;98418.28;5042665;28;20039;-65
2023/11/04 03:36:04;;;;;;;3.25;1.70;;;;;;;9.38;100.00;98415.91;5079186;28;20047;-65
2023/11/04 03:39:13;;;;;;;4.03;1.92;;;;;;;9.39;100.00;98417.50;5079282;28;20071;-64
2023/11/04 03:42:20;;;;;;;3.25;1.90;;;;;;;9.35;100.00;98406.44;5068592;28;20075;-65
2023/11/04 03:45:28;;;;;;;5.18;2.03;;;;;;;9.35;100.00;98394.78;5039283;28;20052;-64
2023/11/04 03:48:37;;;;;;;6.47;1.95;;;;;;;9.34;100.00;98394.00;5078405;28;20496;-64
2023/11/04 03:51:45;;;;;;;4.32;1.85;;;;;;;9.34;100.00;98387.75;5071792;28;20083;-65
2023/11/04 03:54:53;;;;;;;5.63;2.28;;;;;;;9.33;100.00;98392.41;5056462;28;20064;-64
2023/11/04 03:58:01;;;;;;;2.80;1.88;;;;;;;9.33;100.00;98388.88;5071791;28;20043;-65
2023/11/04 04:01:10;;;;;;;7.45;2.42;;;;;;;9.32;100.00;98382.63;5038719;28;20045;-64
2023/11/04 04:04:18;;;;;;;3.05;1.75;;;;;;;9.32;100.00;98379.91;5075316;28;20062;-64
2023/11/04 04:07:26;;;;;;;5.60;1.75;;;;;;;9.32;100.00;98379.91;5081830;28;20189;-65
2023/11/04 04:10:35;;;;;;;3.25;1.70;;;;;;;9.32;100.00;98371.75;5060988;28;20512;-65
2023/11/04 04:13:43;;;;;;;3.80;1.90;;;;;;;9.29;100.00;98364.25;5083636;28;20048;-66
2023/11/04 04:16:51;;;;;;;2.97;1.55;;;;;;;9.31;100.00;98361.22;5070253;28;20040;-64
2023/11/04 04:19:59;;;;;;;4.43;2.05;;;;;;;9.28;100.00;98361.84;5081505;28;20129;-63
2023/11/04 04:23:07;;;;;;;3.80;1.75;;;;;;;9.29;100.00;98355.31;5060212;28;20040;-64
2023/11/04 04:26:22;;;;;;;5.13;2.00;;;;;;;9.28;100.00;98350.97;5074947;28;20039;-65
2023/11/04 04:29:29;;;;;;;3.53;1.95;;;;;;;9.25;100.00;98354.34;5076805;28;20515;-65
2023/11/04 04:32:37;;;;;;;4.60;2.17;;;;;;;9.25;100.00;98347.00;5063205;28;20129;-64
2023/11/04 04:35:45;;;;;;;4.68;2.20;;;;;;;9.27;100.00;98339.31;5065812;28;20229;-64
2023/11/04 04:38:53;;;;;;;5.03;2.20;;;;;;;9.28;100.00;98335.47;5070379;28;20552;-65
2023/11/04 04:42:01;;;;;;;4.55;2.15;;;;;;;9.28;100.00;98340.91;5070685;28;20052;-64
2023/11/04 04:45:10;;;;;;;3.90;1.80;;;;;;;9.28;100.00;98334.69;5082810;28;20059;-64
2023/11/04 04:48:18;;;;;;;3.92;2.00;;;;;;;9.29;100.00;98326.22;5072226;28;20041;-65
2023/11/04 04:51:26;;;;;;;3.67;2.10;;;;;;;9.26;100.00;98326.88;5069854;28;20051;-65
2023/11/04 04:54:34;;;;;;;5.45;2.00;;;;;;;9.25;100.00;98327.97;5098147;28;20266;-65
2023/11/04 04:57:42;;;;;;;4.72;1.83;;;;;;;9.26;100.00;98331.47;5077824;28;20048;-65
2023/11/04 05:00:50;;;;;;;5.28;2.25;;;;;;;9.29;100.00;98320.00;5100193;28;20052;-65
2023/11/04 05:03:58;;;;;;;6.10;1.90;;;;;;;9.28;100.00;98316.44;5110717;28;20123;-65
2023/11/04 05:07:06;;;;;;;5.35;2.42;;;;;;;9.31;100.00;98313.13;5111096;28;20426;-65
2023/11/04 05:10:14;;;;;;;6.57;2.65;;;;;;;9.31;100.00;98312.31;5069644;28;20491;-66
2023/11/04 05:13:22;;;;;;;7.53;2.50;;;;;;;9.27;100.00;98311.34;5098742;28;20036;-65
2023/11/04 05:16:30;;;;;;;6.95;2.10;;;;;;;9.23;100.00;98305.75;5082185;28;20586;-65
2023/11/04 05:19:38;;;;;;;6.65;2.65;;;;;;;9.22;100.00;98304.16;5079707;28;20047;-66
2023/11/04 05:22:46;;;;;;;4.78;2.53;;;;;;;9.22;100.00;98297.94;5080842;28;20040;-65
2023/11/04 05:25:55;;;;;;;4.90;2.20;;;;;;;9.29;100.00;98299.03;5083468;28;20048;-66
2023/11/04 05:29:03;;;;;;;4.50;2.20;;;;;;;9.28;100.00;98283.06;5109068;28;20084;-66
2023/11/04 05:32:11;;;;;;;6.55;2.53;;;;;;;9.30;100.00;98283.53;5103089;27;20044;-66
2023/11/04 05:35:20;;;;;;;6.55;2.60;;;;;;;9.32;100.00;98275.88;5081439;28;20178;-66
2023/11/04 05:38:28;;;;;;;5.55;2.47;;;;;;;9.34;100.00;98277.13;5102037;28;20042;-66
2023/11/04 05:41:36;;;;;;;6.13;2.30;;;;;;;9.31;100.00;98263.41;5101393;28;20039;-64
2023/11/04 05:44:44;;;;;;;4.00;1.98;;;;;;;9.36;100.00;98261.31;5100420;28;20043;-65
2023/11/04 05:47:52;;;;;;;5.55;2.10;;;;;;;9.34;100.00;98271.69;5100619;28;20031;-65
2023/11/04 05:51:00;;;;;;;6.22;2.65;;;;;;;9.34;100.00;98260.84;5089516;28;20053;-66
2023/11/04 05:54:11;;;;;;;5.65;2.42;;;;;;;9.33;100.00;98256.53;5099522;28;20047;-65
2023/11/04 05:57:19;;;;;;;6.45;2.13;;;;;;;9.34;100.00;98258.13;5099575;28;20043;-66
2023/11/04 06:00:28;;;;;;;8.43;2.30;;;;;;;9.34;100.00;98244.53;5079901;28;20170;-65
2023/11/04 06:03:36;;;;;;;8.27;2.58;;;;;;;9.32;100.00;98243.25;5101462;28;20043;-64
2023/11/04 06:06:44;;;;;;;7.65;2.20;;;;;;;9.33;100.00;98233.97;5100266;28;20430;-65
2023/11/04 06:09:52;;;;;;;6.53;2.40;;;;;;;9.29;100.00;98233.84;5094006;28;20424;-65
2023/11/04 06:13:00;;;;;;;9.95;2.65;;;;;;;9.26;100.00;98226.34;5082825;28;20183;-65
2023/11/04 06:16:08;;;;;;;7.82;2.40;;;;;;;9.27;100.00;98224.41;5095826;28;20051;-66
2023/11/04 06:19:16;;;;;;;6.65;2.30;;;;;;;9.27;100.00;98225.19;5079982;28;20048;-65
2023/11/04 06:22:25;;;;;;;7.05;2.70;;;;;;;9.25;100.00;98216.56;5069820;28;20054;-65
2023/11/04 06:25:33;;;;;;;5.22;2.35;;;;;;;9.24;100.00;98215.00;5063735;28;20070;-66
2023/11/04 06:28:41;;;;;;;9.77;2.70;;;;;;;9.28;100.00;98226.78;5100269;28;20047;-66
2023/11/04 06:31:48;;;;;;;8.48;2.95;;;;;;;9.29;100.00;98222.97;5090228;28;20044;-65
2023/11/04 06:34:58;;;;;;;7.20;2.53;;;;;;;9.30;100.00;98219.13;5098631;28;20051;-64
2023/11/04 06:38:06;;;;;;;7.45;2.40;;;;;;;9.31;100.00;98226.16;5099099;28;20038;-64
2023/11/04 06:41:19;;;;;;;8.32;2.53;;;;;;;9.25;100.00;98219.28;5091310;28;20043;-65
2023/11/04 06:44:28;;;;;;;8.70;2.80;;;;;;;9.24;100.00;98208.75;5111650;28;20052;-64
2023/11/04 06:47:36;;;;;;;5.93;2.22;;;;;;;9.23;100.00;98215.31;5083496;28;20377;-65
2023/11/04 06:50:45;;;;;;;7.55;2.65;;;;;;;9.20;100.00;98214.03;5088450;28;20066;-63
2023/11/04 06:53:33;;;;;;;7.95;2.38;;;;;;;9.18;100.00;98217.06;5111420;28;20083;-62
2023/11/04 06:56:24;;;;;;;8.85;2.67;;;;;;;9.20;100.00;98216.75;5083103;28;20070;-64
2023/11/04 06:59:17;;;;;;;7.82;2.58;;;;;;;9.16;100.00;98213.06;5114914;28;20043;-64
2023/11/04 07:02:07;;;;;;;6.45;2.42;;;;;;;9.15;100.00;98208.78;5098007;28;20126;-63
2023/11/04 07:04:58;;;;;;;8.70;2.75;;;;;;;9.15;100.00;98206.06;5113402;28;20404;-65
2023/11/04 07:07:48;;;;;;;8.15;2.65;;;;;;;9.15;100.00;98206.06;5114915;28;20047;-63
2023/11/04 07:10:37;;;;;;;9.40;3.00;;;;;;;9.12;100.00;98201.28;5099102;28;20383;-64
2023/11/04 07:13:25;;;;;;;9.70;2.85;;;;;;;9.08;100.00;98192.16;5090977;28;20062;-63
2023/11/04 07:16:14;;;;;;;8.88;2.72;;;;;;;9.05;100.00;98187.38;5100464;28;20411;-64
2023/11/04 07:19:03;;;;;;;6.50;2.47;;;;;;;9.02;100.00;98185.28;5128711;28;20039;-66
2023/11/04 07:21:52;;;;;;;7.07;2.60;;;;;;;9.00;100.00;98174.78;5119809;28;20515;-64
2023/11/04 07:24:40;;;;;;;8.40;2.40;;;;;;;9.00;100.00;98172.06;5121923;28;20040;-65
2023/11/04 07:27:28;;;;;;;6.95;2.47;;;;;;;9.01;100.00;98172.84;5118777;28;20036;-64
2023/11/04 07:30:16;;;;;;;6.28;2.63;;;;;;;9.13;100.00;98175.69;5129963;28;20048;-63
2023/11/04 07:33:04;;;;;;;7.55;2.70;;;;;;;9.15;100.00;98163.38;5134432;27;20071;-64
2023/11/04 07:35:52;;;;;;;6.07;2.38;;;;;;;9.19;100.00;98163.56;5134231;27;20044;-65
2023/11/04 07:38:40;;;;;;;9.50;2.80;;;;;;;9.17;100.00;98165.78;5114338;28;20122;-64
2023/11/04 07:41:29;;;;;;;8.35;2.53;;;;;;;9.17;100.00;98154.91;5102875;28;20051;-65
2023/11/04 07:44:17;;;;;;;7.85;2.35;;;;;;;9.16;100.00;98154.13;5116489;28;20039;-65
2023/11/04 07:47:05;;;;;;;5.93;2.50;;;;;;;9.18;100.00;98145.63;5114808;28;20089;-63
2023/11/04 07:49:53;;;;;;;7.53;3.13;;;;;;;9.21;100.00;98155.06;5115406;28;20278;-63
2023/11/04 07:52:41;;;;;;;9.77;2.85;;;;;;;9.24;100.00;98144.34;5115426;28;20579;-65
2023/11/04 07:55:45;;;;;;;6.63;2.78;;;;;;;9.24;100.00;98143.56;5113900;28;20070;-64
2023/11/04 07:58:36;;;;;;;8.95;3.35;;;;;;;9.27;100.00;98132.81;5101921;28;20052;-63
2023/11/04 08:01:24;;;;;;;7.60;3.05;;;;;;;9.28;100.00;98118.09;5100205;28;20407;-64
2023/11/04 08:04:12;;;;;;;11.90;4.60;;;;;;;9.35;100.00;98110.25;5115306;28;20047;-63
2023/11/04 08:07:01;;;;;;;10.52;4.03;;;;;;;9.39;100.00;98107.69;5115008;28;20048;-65
2023/11/04 08:09:49;;;;;;;12.68;4.97;;;;;;;9.33;100.00;98096.22;5101575;28;20048;-65
2023/11/04 08:12:38;;;;;;;9.73;4.60;;;;;;;9.31;100.00;98089.50;5115552;28;20047;-64
2023/11/04 08:15:26;;;;;;;11.00;5.18;;;;;;;9.32;100.00;98081.00;5114370;28;20144;-64
2023/11/04 08:18:14;;;;;;;11.77;4.85;;;;;;;9.34;100.00;98078.78;5085971;28;20040;-68
2023/11/04 08:21:02;;;;;;;13.52;5.40;;;;;;;9.33;100.00;98071.75;5079659;28;20048;-66
2023/11/04 08:23:50;;;;;;;15.52;6.30;;;;;;;9.33;100.00;98074.47;5092313;28;20067;-65
2023/11/04 08:26:39;;;;;;;16.88;6.53;;;;;;;9.32;100.00;98064.72;5113315;28;20376;-65
2023/11/04 08:29:27;;;;;;;14.88;5.93;;;;;;;9.37;100.00;98056.38;5114963;27;20165;-65
2023/11/04 08:32:15;;;;;;;14.90;6.38;;;;;;;9.35;100.00;98046.94;5099036;28;20528;-65
2023/11/04 08:35:04;;;;;;;13.15;6.15;;;;;;;9.31;100.00;98052.25;5114915;28;20129;-65
2023/11/04 08:37:52;;;;;;;16.13;7.30;;;;;;;9.33;100.00;98039.16;5098833;28;20039;-64
2023/11/04 08:40:40;;;;;;;11.95;6.30;;;;;;;9.33;100.00;98036.44;5114024;28;20594;-64
2023/11/04 08:43:28;;;;;;;13.50;5.30;;;;;;;9.36;100.00;98034.97;5098720;28;20122;-65
2023/11/04 08:46:18;;;;;;;10.07;3.95;;;;;;;9.36;100.00;98027.63;5099169;28;20419;-63
2023/11/04 08:49:06;;;;;;;5.28;2.40;;;;;;;9.34;100.00;98027.16;5084714;28;20400;-65
2023/11/04 08:51:56;;;;;;;7.45;2.80;;;;;;;9.35;100.00;98020.56;5102937;28;20415;-65
2023/11/04 08:54:44;;;;;;;8.68;3.00;;;;;;;9.48;100.00;98021.47;5100058;28;20487;-65
2023/11/04 08:57:32;;;;;;;8.20;2.50;;;;;;;9.45;100.00;98013.97;5085744;28;20044;-64
2023/11/04 09:00:21;;;;;;;6.30;2.28;;;;;;;9.43;100.00;98004.53;5084574;28;20051;-65
2023/11/04 09:03:09;;;;;;;6.03;2.60;;;;;;;9.44;100.00;98009.66;5112768;28;20104;-64
2023/11/04 09:05:57;;;;;;;6.18;2.67;;;;;;;9.43;100.00;97999.94;5112678;28;20114;-64
2023/11/04 09:08:45;;;;;;;6.82;2.53;;;;;;;9.46;100.00;97998.47;5113365;28;20100;-64
2023/11/04 09:11:34;;;;;;;6.38;2.17;;;;;;;9.45;100.00;97997.66;5106715;28;20088;-64
2023/11/04 09:14:23;;;;;;;5.22;2.00;;;;;;;9.45;100.00;97986.00;5098819;28;20125;-65
2023/11/04 09:17:12;;;;;;;6.50;2.00;;;;;;;9.47;100.00;97979.09;5114717;28;20070;-65
2023/11/04 09:20:00;;;;;;;9.10;2.67;;;;;;;9.52;100.00;97980.81;5099563;28;20039;-65
2023/11/04 09:22:48;;;;;;;7.47;2.40;;;;;;;9.52;100.00;97976.19;5117272;27;20043;-63
2023/11/04 09:25:37;;;;;;;5.70;2.33;;;;;;;9.54;100.00;97976.66;5098482;28;20044;-64
2023/11/04 09:28:25;;;;;;;11.50;4.07;;;;;;;9.58;100.00;97963.22;5099349;28;20079;-66
2023/11/04 09:31:13;;;;;;;8.20;2.90;;;;;;;9.61;100.00;97965.25;5114969;28;20580;-66
2023/11/04 09:34:02;;;;;;;11.90;3.28;;;;;;;9.71;100.00;97961.34;5113602;28;20506;-64
2023/11/04 09:36:50;;;;;;;4.90;2.22;;;;;;;9.72;100.00;97962.94;5085568;28;20051;-65
2023/11/04 09:39:38;;;;;;;4.80;2.25;;;;;;;9.67;100.00;97955.78;5113156;28;20502;-65
2023/11/04 09:42:32;;;;;;;4.32;2.20;;;;;;;9.67;100.00;97955.78;5114552;28;20051;-65
2023/11/04 09:45:23;;;;;;;8.38;2.70;;;;;;;9.71;100.00;97956.69;5082962;28;20035;-65
2023/11/04 09:48:11;;;;;;;8.98;2.63;;;;;;;9.78;100.00;97962.38;5092486;28;20039;-65
2023/11/04 09:51:02;;;;;;;7.47;2.28;;;;;;;9.78;100.00;97937.91;5113854;28;20040;-65
2023/11/04 09:53:55;;;;;;;5.55;2.35;;;;;;;9.77;100.00;97932.81;5097248;28;20103;-66
2023/11/04 09:56:43;;;;;;;7.55;2.28;;;;;;;9.75;100.00;97919.56;5098549;28;20043;-64
2023/11/04 09:59:32;;;;;;;7.65;2.65;;;;;;;9.80;100.00;97915.84;5113039;28;20415;-65
2023/11/04 10:02:20;;;;;;;4.32;1.92;;;;;;;9.79;100.00;97903.38;5112890;28;20096;-66
2023/11/04 10:05:09;;;;;;;7.25;2.50;;;;;;;9.83;100.00;97898.84;5108408;28;20048;-65
2023/11/04 10:07:57;;;;;;;5.30;1.90;;;;;;;9.85;100.00;97903.97;5113723;28;20487;-66
2023/11/04 10:10:45;;;;;;;9.02;2.83;;;;;;;9.87;100.00;97888.09;5102983;28;20388;-64
2023/11/04 10:13:34;;;;;;;7.30;2.42;;;;;;;9.85;100.00;97884.94;5114531;27;20077;-64
2023/11/04 10:16:22;;;;;;;10.82;2.70;;;;;;;9.84;100.00;97880.59;5104136;28;20055;-65
2023/11/04 10:19:13;;;;;;;8.13;2.42;;;;;;;9.85;100.00;97865.88;5072966;28;20044;-65
2023/11/04 10:22:01;;;;;;;8.25;2.28;;;;;;;9.85;100.00;97858.53;5110563;27;20051;-65
2023/11/04 10:24:49;;;;;;;3.30;1.90;;;;;;;9.86;100.00;97853.88;5108654;28;20649;-65
2023/11/04 10:27:38;;;;;;;7.20;2.70;;;;;;;9.87;100.00;97839.16;5112382;28;20134;-65
2023/11/04 10:30:27;;;;;;;4.70;2.10;;;;;;;9.89;100.00;97831.47;5097866;28;20509;-64
2023/11/04 10:33:16;;;;;;;8.15;2.95;;;;;;;9.90;100.00;97827.59;5065447;28;20371;-67
2023/11/04 10:36:05;;;;;;;5.97;2.38;;;;;;;9.92;100.00;97817.19;5098342;28;20040;-67
2023/11/04 10:38:57;;;;;;;5.97;1.85;;;;;;;9.92;100.00;97809.03;5099134;28;20120;-67
2023/11/04 10:42:01;;;;;;;5.00;1.95;;;;;;;9.91;100.00;97808.22;5070848;28;20051;-67
2023/11/04 10:44:53;;;;;;;7.75;2.13;;;;;;;9.91;100.00;97799.25;5112803;28;20131;-67
2023/11/04 10:47:54;;;;;;;6.70;2.33;;;;;;;9.91;100.00;97785.66;5107406;28;20069;-67
2023/11/04 10:50:45;;;;;;;3.88;1.92;;;;;;;9.93;100.00;97777.97;5133927;28;20091;-67
2023/11/04 10:53:50;;;;;;;7.05;2.10;;;;;;;9.94;100.00;97771.41;5101875;28;20051;-67
2023/11/04 10:56:58;;;;;;;5.60;2.00;;;;;;;9.94;100.00;97749.66;5086106;28;20047;-66
2023/11/04 11:00:05;;;;;;;6.88;2.10;;;;;;;9.95;100.00;97743.06;5103094;28;20043;-67
2023/11/04 11:02:53;;;;;;;6.10;2.28;;;;;;;9.96;100.00;97742.75;5127149;27;20177;-68
2023/11/04 11:05:42;;;;;;;5.57;2.00;;;;;;;9.99;100.00;97727.66;5101080;28;20653;-68
2023/11/04 11:08:30;;;;;;;6.75;2.05;;;;;;;9.97;100.00;97721.75;5114789;28;20055;-68
2023/11/04 11:11:43;;;;;;;5.20;1.90;;;;;;;9.98;100.00;97717.91;5073441;27;20039;-67
2023/11/04 11:14:32;;;;;;;6.00;2.00;;;;;;;9.95;100.00;97705.00;5102413;28;20499;-67
2023/11/04 11:17:32;;;;;;;6.68;2.28;;;;;;;9.94;100.00;97697.97;5136438;27;20689;-68
2023/11/04 11:20:33;;;;;;;6.13;2.22;;;;;;;9.93;100.00;97696.38;5107941;28;20628;-67
2023/11/04 11:23:28;;;;;;;4.70;1.90;;;;;;;9.89;100.00;97674.53;5109564;27;20062;-68
2023/11/04 11:26:17;;;;;;;6.13;2.10;;;;;;;9.90;100.00;97672.59;5115544;27;20526;-67
2023/11/04 11:29:05;;;;;;;4.80;1.98;;;;;;;9.92;100.00;97671.09;5111754;28;20040;-67
2023/11/04 11:32:08;;;;;;;7.70;2.55;;;;;;;9.92;100.00;97659.44;5101979;27;20071;-68
2023/11/04 11:34:56;;;;;;;5.90;2.53;;;;;;;9.83;100.00;97632.38;5110536;28;20051;-68
2023/11/04 11:37:50;;;;;;;5.93;2.08;;;;;;;9.76;100.00;97630.22;5119109;28;20071;-68
2023/11/04 11:40:38;;;;;;;9.85;2.83;;;;;;;9.74;100.00;97608.03;5118679;28;20054;-67
2023/11/04 11:43:39;;;;;;;4.90;1.98;;;;;;;9.76;100.00;97600.31;5129569;27;20048;-67
2023/11/04 11:46:29;;;;;;;6.70;1.90;;;;;;;9.80;100.00;97595.78;5085836;28;20051;-68
2023/11/04 11:49:18;;;;;;;6.38;2.47;;;;;;;9.83;100.00;97599.72;5121623;27;20044;-67
2023/11/04 11:52:07;;;;;;;6.35;2.15;;;;;;;9.88;100.00;97585.13;5128400;27;20051;-67
2023/11/04 11:54:58;;;;;;;5.22;1.90;;;;;;;9.88;100.00;97576.97;5130497;28;20052;-68
2023/11/04 11:57:46;;;;;;;6.90;1.90;;;;;;;9.90;100.00;97569.25;5134880;28;20044;-67
2023/11/04 12:00:36;;;;;;;8.75;2.35;;;;;;;9.89;100.00;97552.16;5131024;28;20044;-69
2023/11/04 12:03:26;;;;;;;7.47;2.88;;;;;;;9.87;100.00;97540.03;5129746;28;20103;-67
2023/11/04 12:06:15;;;;;;;7.85;2.67;;;;;;;9.86;100.00;97533.00;5107287;28;20063;-68
2023/11/04 12:09:05;;;;;;;7.55;2.28;;;;;;;9.88;100.00;97528.00;5118265;28;20050;-66
2023/11/04 12:11:55;;;;;;;7.03;2.70;;;;;;;9.85;100.00;97506.97;5103619;28;20192;-66
2023/11/04 12:14:44;;;;;;;9.23;2.47;;;;;;;9.87;100.00;97496.53;5100121;28;20051;-66
2023/11/04 12:17:34;;;;;;;5.65;2.05;;;;;;;9.88;100.00;97484.50;5113476;28;20044;-67
2023/11/04 12:20:26;;;;;;;8.23;2.58;;;;;;;9.86;100.00;97471.28;5106027;28;20056;-67
2023/11/04 12:23:26;;;;;;;8.10;2.50;;;;;;;9.87;100.00;97455.75;4544420;28;10001119;-67
2023/11/04 12:26:15;;;;;;;8.13;2.25;;;;;;;9.87;100.00;97450.31;5111613;28;20054;-67
2023/11/04 12:29:05;;;;;;;7.13;2.65;;;;;;;9.86;100.00;97437.81;5089538;28;20047;-67
2023/11/04 12:31:53;;;;;;;5.10;2.30;;;;;;;9.81;100.00;97417.94;5111148;28;20071;-67
2023/11/04 12:34:51;;;;;;;6.90;2.58;;;;;;;9.80;100.00;97397.28;5110758;28;20566;-67
2023/11/04 12:37:39;;;;;;;6.90;2.35;;;;;;;9.79;100.00;97393.00;5084125;28;20511;-66
2023/11/04 12:40:31;;;;;;;6.93;2.13;;;;;;;9.76;100.00;97371.94;5064556;28;20135;-67
2023/11/04 12:43:22;;;;;;;7.32;2.50;;;;;;;9.73;100.00;97366.41;5106526;28;20130;-68
2023/11/04 12:46:11;;;;;;;6.80;2.70;;;;;;;9.71;100.00;97358.59;5131590;28;20447;-67
2023/11/04 12:48:59;;;;;;;7.97;2.63;;;;;;;9.74;100.00;97352.47;5115483;28;20047;-67
2023/11/04 12:51:47;;;;;;;7.85;2.85;;;;;;;9.77;100.00;97354.50;5109799;28;20128;-68
2023/11/04 12:54:36;;;;;;;6.20;2.00;;;;;;;9.77;100.00;97343.63;5056089;28;1100679;-68
2023/11/04 12:57:24;;;;;;;4.55;2.03;;;;;;;9.78;100.00;97341.69;5096173;28;20100;-67
2023/11/04 13:00:12;;;;;;;4.82;1.85;;;;;;;9.77;100.00;97330.03;5078863;28;20124;-67
2023/11/04 13:03:02;;;;;;;6.40;2.15;;;;;;;9.75;100.00;97332.31;5095324;28;20051;-67
2023/11/04 13:05:50;;;;;;;2.78;1.55;;;;;;;9.72;100.00;97322.13;5110556;28;20413;-67
2023/11/04 13:08:38;;;;;;;3.40;1.80;;;;;;;9.72;100.00;97321.34;5093665;28;20674;-67
2023/11/04 13:11:26;;;;;;;8.35;2.38;;;;;;;9.68;100.00;97304.94;5122486;27;20059;-68
2023/11/04 13:14:14;;;;;;;6.63;2.47;;;;;;;9.73;100.00;97307.38;5133087;27;20051;-67
2023/11/04 13:17:03;;;;;;;5.57;2.05;;;;;;;9.76;100.00;97295.03;5102467;27;20587;-67
2023/11/04 13:19:51;;;;;;;4.50;2.10;;;;;;;9.77;100.00;97289.25;5108872;28;20442;-66
2023/11/04 13:22:39;;;;;;;7.38;2.25;;;;;;;9.74;100.00;97303.56;5103716;28;20204;-67
2023/11/04 13:25:29;;;;;;;4.72;1.75;;;;;;;9.74;100.00;97281.81;5089811;28;20060;-67
2023/11/04 13:28:17;;;;;;;5.85;2.05;;;;;;;9.77;100.00;97291.97;5076213;28;20446;-67
2023/11/04 13:31:06;;;;;;;6.13;1.92;;;;;;;9.68;100.00;97285.91;5111758;27;20047;-67
2023/11/04 13:33:54;;;;;;;4.88;2.22;;;;;;;9.69;100.00;97283.97;5095473;28;20402;-67
2023/11/04 13:36:43;;;;;;;5.00;2.30;;;;;;;9.69;100.00;97278.53;5110483;28;20047;-67
2023/11/04 13:39:31;;;;;;;5.07;2.05;;;;;;;9.70;100.00;97274.69;5075205;28;20052;-67
2023/11/04 13:42:19;;;;;;;5.25;1.83;;;;;;;9.66;100.00;97258.28;5084363;28;20040;-67
2023/11/04 13:45:08;;;;;;;3.28;1.70;;;;;;;9.62;100.00;97265.56;5110263;28;20415;-67
2023/11/04 13:47:56;;;;;;;6.75;1.92;;;;;;;9.62;100.00;97260.13;5108412;28;20044;-67
2023/11/04 13:50:44;;;;;;;5.10;2.47;;;;;;;9.65;100.00;97261.38;5080301;28;20120;-67
2023/11/04 13:53:32;;;;;;;4.38;1.90;;;;;;;9.64;100.00;97241.53;5086338;27;20525;-68
2023/11/04 13:56:21;;;;;;;4.13;1.73;;;;;;;9.66;100.00;97252.84;5095692;28;20104;-67